sensor_id;sensor_type;location;lat;lon;timestamp;temperature;humidity
68556;HTU21D;55544;51.032;5.866;2023-05-10T00:01:24;15.04;89.11
68556;HTU21D;55544;51.032;5.866;2023-05-10T00:03:49;15.02;89.30
68556;HTU21D;55544;51.032;5.866;2023-05-10T00:06:15;15.00;89.38
68556;HTU21D;55544;51.032;5.866;2023-05-10T00:08:41;15.03;89.47
68556;HTU21D;55544;51.032;5.866;2023-05-10T00:11:07;15.03;89.34
68556;HTU21D;55544;51.032;5.866;2023-05-10T00:13:33;15.03;89.34
68556;HTU21D;55544;51.032;5.866;2023-05-10T00:15:58;15.00;89.53
68556;HTU21D;55544;51.032;5.866;2023-05-10T00:18:24;15.00;89.50
68556;HTU21D;55544;51.032;5.866;2023-05-10T00:20:50;15.04;89.29
68556;HTU21D;55544;51.032;5.866;2023-05-10T00:23:16;15.00;89.31
68556;HTU21D;55544;51.032;5.866;2023-05-10T00:25:41;15.01;89.42
68556;HTU21D;55544;51.032;5.866;2023-05-10T00:28:07;15.03;89.31
68556;HTU21D;55544;51.032;5.866;2023-05-10T00:30:33;15.04;89.40
68556;HTU21D;55544;51.032;5.866;2023-05-10T00:33:00;15.08;89.38
68556;HTU21D;55544;51.032;5.866;2023-05-10T00:35:26;15.09;89.25
68556;HTU21D;55544;51.032;5.866;2023-05-10T00:37:52;15.12;89.17
68556;HTU21D;55544;51.032;5.866;2023-05-10T00:40:19;15.15;88.96
68556;HTU21D;55544;51.032;5.866;2023-05-10T00:42:48;15.16;88.63
68556;HTU21D;55544;51.032;5.866;2023-05-10T00:45:14;15.13;88.81
68556;HTU21D;55544;51.032;5.866;2023-05-10T00:47:40;15.13;89.01
68556;HTU21D;55544;51.032;5.866;2023-05-10T00:50:07;15.15;89.02
68556;HTU21D;55544;51.032;5.866;2023-05-10T00:52:33;15.14;89.14
68556;HTU21D;55544;51.032;5.866;2023-05-10T00:55:00;15.19;89.15
68556;HTU21D;55544;51.032;5.866;2023-05-10T00:57:26;15.22;89.12
68556;HTU21D;55544;51.032;5.866;2023-05-10T00:59:52;15.24;88.83
68556;HTU21D;55544;51.032;5.866;2023-05-10T01:02:18;15.26;88.76
68556;HTU21D;55544;51.032;5.866;2023-05-10T01:04:43;15.28;88.60
68556;HTU21D;55544;51.032;5.866;2023-05-10T01:07:09;15.27;88.55
68556;HTU21D;55544;51.032;5.866;2023-05-10T01:09:36;15.27;88.37
68556;HTU21D;55544;51.032;5.866;2023-05-10T01:12:02;15.28;88.35
68556;HTU21D;55544;51.032;5.866;2023-05-10T01:14:32;15.27;88.38
68556;HTU21D;55544;51.032;5.866;2023-05-10T01:16:58;15.26;88.39
68556;HTU21D;55544;51.032;5.866;2023-05-10T01:19:31;15.24;88.45
68556;HTU21D;55544;51.032;5.866;2023-05-10T01:22:25;15.21;88.59
68556;HTU21D;55544;51.032;5.866;2023-05-10T01:33:28;15.15;88.76
68556;HTU21D;55544;51.032;5.866;2023-05-10T01:45:02;15.08;89.27
68556;HTU21D;55544;51.032;5.866;2023-05-10T01:47:58;15.08;89.05
68556;HTU21D;55544;51.032;5.866;2023-05-10T01:50:30;15.06;89.38
68556;HTU21D;55544;51.032;5.866;2023-05-10T01:52:59;15.01;89.28
68556;HTU21D;55544;51.032;5.866;2023-05-10T01:55:32;14.96;89.50
68556;HTU21D;55544;51.032;5.866;2023-05-10T01:58:10;14.93;89.55
68556;HTU21D;55544;51.032;5.866;2023-05-10T02:00:42;14.89;89.74
68556;HTU21D;55544;51.032;5.866;2023-05-10T02:03:10;14.91;89.66
68556;HTU21D;55544;51.032;5.866;2023-05-10T02:05:38;14.86;89.76
68556;HTU21D;55544;51.032;5.866;2023-05-10T02:08:07;14.92;89.82
68556;HTU21D;55544;51.032;5.866;2023-05-10T02:10:36;14.95;89.63
68556;HTU21D;55544;51.032;5.866;2023-05-10T02:13:03;14.94;89.54
68556;HTU21D;55544;51.032;5.866;2023-05-10T02:15:32;14.92;89.74
68556;HTU21D;55544;51.032;5.866;2023-05-10T02:18:01;14.91;89.87
68556;HTU21D;55544;51.032;5.866;2023-05-10T02:20:29;14.93;89.71
68556;HTU21D;55544;51.032;5.866;2023-05-10T02:22:57;14.91;89.88
68556;HTU21D;55544;51.032;5.866;2023-05-10T02:25:25;14.89;89.86
68556;HTU21D;55544;51.032;5.866;2023-05-10T02:27:55;14.91;89.71
68556;HTU21D;55544;51.032;5.866;2023-05-10T02:30:23;14.91;89.61
68556;HTU21D;55544;51.032;5.866;2023-05-10T02:32:50;14.84;89.69
68556;HTU21D;55544;51.032;5.866;2023-05-10T02:35:18;14.85;89.73
68556;HTU21D;55544;51.032;5.866;2023-05-10T02:37:46;14.78;89.83
68556;HTU21D;55544;51.032;5.866;2023-05-10T02:40:16;14.81;89.60
68556;HTU21D;55544;51.032;5.866;2023-05-10T02:42:45;14.78;89.82
68556;HTU21D;55544;51.032;5.866;2023-05-10T02:45:19;14.78;89.41
68556;HTU21D;55544;51.032;5.866;2023-05-10T02:47:47;14.72;89.58
68556;HTU21D;55544;51.032;5.866;2023-05-10T02:50:13;14.70;89.57
68556;HTU21D;55544;51.032;5.866;2023-05-10T02:52:42;14.63;89.70
68556;HTU21D;55544;51.032;5.866;2023-05-10T02:55:12;14.66;89.74
68556;HTU21D;55544;51.032;5.866;2023-05-10T02:57:46;14.65;89.73
68556;HTU21D;55544;51.032;5.866;2023-05-10T03:00:14;14.67;89.38
68556;HTU21D;55544;51.032;5.866;2023-05-10T03:02:40;14.72;88.96
68556;HTU21D;55544;51.032;5.866;2023-05-10T03:05:06;14.67;88.55
68556;HTU21D;55544;51.032;5.866;2023-05-10T03:07:33;14.62;88.67
68556;HTU21D;55544;51.032;5.866;2023-05-10T03:09:59;14.57;88.69
68556;HTU21D;55544;51.032;5.866;2023-05-10T03:12:33;14.57;88.85
68556;HTU21D;55544;51.032;5.866;2023-05-10T03:18:04;14.58;88.71
68556;HTU21D;55544;51.032;5.866;2023-05-10T03:20:36;14.58;88.73
68556;HTU21D;55544;51.032;5.866;2023-05-10T03:23:10;14.56;88.79
68556;HTU21D;55544;51.032;5.866;2023-05-10T03:25:37;14.58;88.59
68556;HTU21D;55544;51.032;5.866;2023-05-10T03:28:06;14.57;88.73
68556;HTU21D;55544;51.032;5.866;2023-05-10T03:30:34;14.60;88.53
68556;HTU21D;55544;51.032;5.866;2023-05-10T03:33:05;14.62;88.43
68556;HTU21D;55544;51.032;5.866;2023-05-10T03:35:33;14.57;88.21
68556;HTU21D;55544;51.032;5.866;2023-05-10T03:37:59;14.56;88.45
68556;HTU21D;55544;51.032;5.866;2023-05-10T03:40:26;14.53;88.57
68556;HTU21D;55544;51.032;5.866;2023-05-10T03:42:55;14.50;88.60
68556;HTU21D;55544;51.032;5.866;2023-05-10T03:45:20;14.53;88.52
68556;HTU21D;55544;51.032;5.866;2023-05-10T03:47:46;14.49;88.47
68556;HTU21D;55544;51.032;5.866;2023-05-10T03:50:12;14.47;88.71
68556;HTU21D;55544;51.032;5.866;2023-05-10T03:52:38;14.50;88.69
68556;HTU21D;55544;51.032;5.866;2023-05-10T03:55:05;14.54;88.27
68556;HTU21D;55544;51.032;5.866;2023-05-10T03:57:31;14.50;88.56
68556;HTU21D;55544;51.032;5.866;2023-05-10T03:59:57;14.50;88.75
68556;HTU21D;55544;51.032;5.866;2023-05-10T04:02:23;14.50;88.70
68556;HTU21D;55544;51.032;5.866;2023-05-10T04:04:49;14.55;88.40
68556;HTU21D;55544;51.032;5.866;2023-05-10T04:07:14;14.49;88.31
68556;HTU21D;55544;51.032;5.866;2023-05-10T04:09:40;14.42;88.41
68556;HTU21D;55544;51.032;5.866;2023-05-10T04:12:06;14.34;88.73
68556;HTU21D;55544;51.032;5.866;2023-05-10T04:14:32;14.38;88.64
68556;HTU21D;55544;51.032;5.866;2023-05-10T04:16:57;14.37;88.80
68556;HTU21D;55544;51.032;5.866;2023-05-10T04:19:23;14.37;88.83
68556;HTU21D;55544;51.032;5.866;2023-05-10T04:21:49;14.38;88.88
68556;HTU21D;55544;51.032;5.866;2023-05-10T04:24:14;14.38;88.83
68556;HTU21D;55544;51.032;5.866;2023-05-10T04:26:40;14.37;88.64
68556;HTU21D;55544;51.032;5.866;2023-05-10T04:29:06;14.33;88.89
68556;HTU21D;55544;51.032;5.866;2023-05-10T04:31:32;14.34;88.73
68556;HTU21D;55544;51.032;5.866;2023-05-10T04:33:57;14.36;88.91
68556;HTU21D;55544;51.032;5.866;2023-05-10T04:36:23;14.37;88.81
68556;HTU21D;55544;51.032;5.866;2023-05-10T04:38:49;14.38;88.77
68556;HTU21D;55544;51.032;5.866;2023-05-10T04:41:14;14.41;88.80
68556;HTU21D;55544;51.032;5.866;2023-05-10T04:43:40;14.41;88.82
68556;HTU21D;55544;51.032;5.866;2023-05-10T04:46:06;14.39;88.86
68556;HTU21D;55544;51.032;5.866;2023-05-10T04:48:32;14.43;88.72
68556;HTU21D;55544;51.032;5.866;2023-05-10T04:50:58;14.40;89.02
68556;HTU21D;55544;51.032;5.866;2023-05-10T04:53:24;14.47;88.84
68556;HTU21D;55544;51.032;5.866;2023-05-10T04:55:49;14.44;88.92
68556;HTU21D;55544;51.032;5.866;2023-05-10T04:58:15;14.48;88.88
68556;HTU21D;55544;51.032;5.866;2023-05-10T05:00:41;14.52;88.80
68556;HTU21D;55544;51.032;5.866;2023-05-10T05:03:07;14.49;89.04
68556;HTU21D;55544;51.032;5.866;2023-05-10T05:05:33;14.51;89.06
68556;HTU21D;55544;51.032;5.866;2023-05-10T05:07:59;14.54;89.08
68556;HTU21D;55544;51.032;5.866;2023-05-10T05:10:25;14.58;88.93
68556;HTU21D;55544;51.032;5.866;2023-05-10T05:12:50;14.62;88.86
68556;HTU21D;55544;51.032;5.866;2023-05-10T05:15:16;14.65;88.61
68556;HTU21D;55544;51.032;5.866;2023-05-10T05:17:43;14.64;88.33
68556;HTU21D;55544;51.032;5.866;2023-05-10T05:20:09;14.60;88.30
68556;HTU21D;55544;51.032;5.866;2023-05-10T05:22:36;14.59;88.57
68556;HTU21D;55544;51.032;5.866;2023-05-10T05:25:02;14.60;88.54
68556;HTU21D;55544;51.032;5.866;2023-05-10T05:27:28;14.65;88.57
68556;HTU21D;55544;51.032;5.866;2023-05-10T05:29:55;14.65;88.54
68556;HTU21D;55544;51.032;5.866;2023-05-10T05:32:22;14.68;88.51
68556;HTU21D;55544;51.032;5.866;2023-05-10T05:34:48;14.71;88.44
68556;HTU21D;55544;51.032;5.866;2023-05-10T05:37:18;14.71;88.15
68556;HTU21D;55544;51.032;5.866;2023-05-10T05:39:45;14.71;88.07
68556;HTU21D;55544;51.032;5.866;2023-05-10T05:42:12;14.70;88.07
68556;HTU21D;55544;51.032;5.866;2023-05-10T05:44:39;14.71;87.84
68556;HTU21D;55544;51.032;5.866;2023-05-10T05:47:05;14.75;87.70
68556;HTU21D;55544;51.032;5.866;2023-05-10T05:49:31;14.77;87.67
68556;HTU21D;55544;51.032;5.866;2023-05-10T05:52:03;14.78;87.30
68556;HTU21D;55544;51.032;5.866;2023-05-10T05:54:30;14.77;87.45
68556;HTU21D;55544;51.032;5.866;2023-05-10T05:57:00;14.82;86.87
68556;HTU21D;55544;51.032;5.866;2023-05-10T05:59:26;14.78;87.11
68556;HTU21D;55544;51.032;5.866;2023-05-10T06:01:51;14.78;87.15
68556;HTU21D;55544;51.032;5.866;2023-05-10T06:04:18;14.79;87.19
68556;HTU21D;55544;51.032;5.866;2023-05-10T06:06:43;14.80;87.22
68556;HTU21D;55544;51.032;5.866;2023-05-10T06:09:10;14.82;87.26
68556;HTU21D;55544;51.032;5.866;2023-05-10T06:11:36;14.88;87.02
68556;HTU21D;55544;51.032;5.866;2023-05-10T06:14:03;14.89;86.91
68556;HTU21D;55544;51.032;5.866;2023-05-10T06:16:30;14.95;86.86
68556;HTU21D;55544;51.032;5.866;2023-05-10T06:18:56;14.98;86.82
68556;HTU21D;55544;51.032;5.866;2023-05-10T06:21:22;15.01;86.61
68556;HTU21D;55544;51.032;5.866;2023-05-10T06:23:47;15.07;86.67
68556;HTU21D;55544;51.032;5.866;2023-05-10T06:26:13;15.11;86.55
68556;HTU21D;55544;51.032;5.866;2023-05-10T06:28:39;15.14;86.53
68556;HTU21D;55544;51.032;5.866;2023-05-10T06:31:06;15.14;86.31
68556;HTU21D;55544;51.032;5.866;2023-05-10T06:33:33;15.10;85.99
68556;HTU21D;55544;51.032;5.866;2023-05-10T06:35:58;15.09;86.17
68556;HTU21D;55544;51.032;5.866;2023-05-10T06:38:25;15.09;86.09
68556;HTU21D;55544;51.032;5.866;2023-05-10T06:40:51;15.10;86.09
68556;HTU21D;55544;51.032;5.866;2023-05-10T06:43:16;15.13;86.22
68556;HTU21D;55544;51.032;5.866;2023-05-10T06:45:42;15.19;86.00
68556;HTU21D;55544;51.032;5.866;2023-05-10T06:48:08;15.22;85.92
68556;HTU21D;55544;51.032;5.866;2023-05-10T06:50:34;15.25;85.93
68556;HTU21D;55544;51.032;5.866;2023-05-10T06:53:01;15.28;85.58
68556;HTU21D;55544;51.032;5.866;2023-05-10T06:55:29;15.31;85.45
68556;HTU21D;55544;51.032;5.866;2023-05-10T06:57:55;15.30;85.42
68556;HTU21D;55544;51.032;5.866;2023-05-10T07:00:21;15.31;85.58
68556;HTU21D;55544;51.032;5.866;2023-05-10T07:02:47;15.33;85.66
68556;HTU21D;55544;51.032;5.866;2023-05-10T07:05:13;15.31;85.60
68556;HTU21D;55544;51.032;5.866;2023-05-10T07:07:39;15.28;85.26
68556;HTU21D;55544;51.032;5.866;2023-05-10T07:10:06;15.26;85.14
68556;HTU21D;55544;51.032;5.866;2023-05-10T07:12:32;15.23;85.26
68556;HTU21D;55544;51.032;5.866;2023-05-10T07:14:58;15.26;85.61
68556;HTU21D;55544;51.032;5.866;2023-05-10T07:17:24;15.33;85.66
68556;HTU21D;55544;51.032;5.866;2023-05-10T07:19:50;15.28;85.11
68556;HTU21D;55544;51.032;5.866;2023-05-10T07:22:16;15.24;85.03
68556;HTU21D;55544;51.032;5.866;2023-05-10T07:24:44;15.17;85.18
68556;HTU21D;55544;51.032;5.866;2023-05-10T07:27:10;15.26;85.21
68556;HTU21D;55544;51.032;5.866;2023-05-10T07:29:36;15.17;84.99
68556;HTU21D;55544;51.032;5.866;2023-05-10T07:32:02;15.09;85.07
68556;HTU21D;55544;51.032;5.866;2023-05-10T07:34:28;15.06;84.90
68556;HTU21D;55544;51.032;5.866;2023-05-10T07:36:56;14.97;85.06
68556;HTU21D;55544;51.032;5.866;2023-05-10T07:39:21;14.99;85.19
68556;HTU21D;55544;51.032;5.866;2023-05-10T07:41:47;15.00;85.73
68556;HTU21D;55544;51.032;5.866;2023-05-10T07:44:13;15.00;85.61
68556;HTU21D;55544;51.032;5.866;2023-05-10T07:46:38;14.99;85.77
68556;HTU21D;55544;51.032;5.866;2023-05-10T07:49:04;14.99;86.02
68556;HTU21D;55544;51.032;5.866;2023-05-10T07:51:30;14.99;85.77
68556;HTU21D;55544;51.032;5.866;2023-05-10T07:53:56;15.02;85.47
68556;HTU21D;55544;51.032;5.866;2023-05-10T07:56:24;14.97;85.84
68556;HTU21D;55544;51.032;5.866;2023-05-10T07:58:59;14.99;86.22
68556;HTU21D;55544;51.032;5.866;2023-05-10T08:01:26;15.01;85.96
68556;HTU21D;55544;51.032;5.866;2023-05-10T08:03:52;14.98;86.01
68556;HTU21D;55544;51.032;5.866;2023-05-10T08:06:19;15.00;86.25
68556;HTU21D;55544;51.032;5.866;2023-05-10T08:08:47;15.04;86.03
68556;HTU21D;55544;51.032;5.866;2023-05-10T08:11:18;15.04;86.17
68556;HTU21D;55544;51.032;5.866;2023-05-10T08:13:44;15.04;86.09
68556;HTU21D;55544;51.032;5.866;2023-05-10T08:16:10;15.02;85.74
68556;HTU21D;55544;51.032;5.866;2023-05-10T08:18:36;15.02;85.57
68556;HTU21D;55544;51.032;5.866;2023-05-10T08:21:03;15.02;85.54
68556;HTU21D;55544;51.032;5.866;2023-05-10T08:23:29;15.07;85.38
68556;HTU21D;55544;51.032;5.866;2023-05-10T08:25:54;15.08;84.84
68556;HTU21D;55544;51.032;5.866;2023-05-10T08:28:20;15.01;84.85
68556;HTU21D;55544;51.032;5.866;2023-05-10T08:30:46;15.03;84.61
68556;HTU21D;55544;51.032;5.866;2023-05-10T08:33:11;15.02;84.77
68556;HTU21D;55544;51.032;5.866;2023-05-10T08:35:37;15.01;84.46
68556;HTU21D;55544;51.032;5.866;2023-05-10T08:38:03;15.08;84.90
68556;HTU21D;55544;51.032;5.866;2023-05-10T08:40:29;15.15;85.32
68556;HTU21D;55544;51.032;5.866;2023-05-10T08:43:01;15.22;84.60
68556;HTU21D;55544;51.032;5.866;2023-05-10T08:45:33;15.27;84.35
68556;HTU21D;55544;51.032;5.866;2023-05-10T08:48:02;15.28;84.20
68556;HTU21D;55544;51.032;5.866;2023-05-10T08:50:31;15.33;84.22
68556;HTU21D;55544;51.032;5.866;2023-05-10T08:53:00;15.38;84.31
68556;HTU21D;55544;51.032;5.866;2023-05-10T08:55:28;15.46;83.93
68556;HTU21D;55544;51.032;5.866;2023-05-10T08:57:54;15.55;83.90
68556;HTU21D;55544;51.032;5.866;2023-05-10T09:00:21;15.51;83.29
68556;HTU21D;55544;51.032;5.866;2023-05-10T09:02:49;15.46;83.36
68556;HTU21D;55544;51.032;5.866;2023-05-10T09:05:15;15.49;83.49
68556;HTU21D;55544;51.032;5.866;2023-05-10T09:07:41;15.45;83.56
68556;HTU21D;55544;51.032;5.866;2023-05-10T09:10:08;15.48;83.46
68556;HTU21D;55544;51.032;5.866;2023-05-10T09:12:35;15.65;83.55
68556;HTU21D;55544;51.032;5.866;2023-05-10T09:15:01;15.82;82.69
68556;HTU21D;55544;51.032;5.866;2023-05-10T09:17:29;15.80;83.17
68556;HTU21D;55544;51.032;5.866;2023-05-10T09:20:13;15.91;82.82
68556;HTU21D;55544;51.032;5.866;2023-05-10T09:22:39;15.91;82.84
68556;HTU21D;55544;51.032;5.866;2023-05-10T09:25:12;15.96;82.60
68556;HTU21D;55544;51.032;5.866;2023-05-10T09:27:39;16.05;82.30
68556;HTU21D;55544;51.032;5.866;2023-05-10T09:30:07;16.16;81.38
68556;HTU21D;55544;51.032;5.866;2023-05-10T09:32:47;16.14;81.79
68556;HTU21D;55544;51.032;5.866;2023-05-10T09:35:16;16.21;81.35
68556;HTU21D;55544;51.032;5.866;2023-05-10T09:37:44;16.35;80.98
68556;HTU21D;55544;51.032;5.866;2023-05-10T09:42:39;16.22;81.40
68556;HTU21D;55544;51.032;5.866;2023-05-10T09:45:06;16.33;82.83
68556;HTU21D;55544;51.032;5.866;2023-05-10T09:47:36;16.46;82.27
68556;HTU21D;55544;51.032;5.866;2023-05-10T09:50:05;16.45;81.58
68556;HTU21D;55544;51.032;5.866;2023-05-10T09:52:52;16.50;81.11
68556;HTU21D;55544;51.032;5.866;2023-05-10T09:55:20;16.48;82.05
68556;HTU21D;55544;51.032;5.866;2023-05-10T09:57:48;16.52;79.50
68556;HTU21D;55544;51.032;5.866;2023-05-10T10:00:19;16.43;80.30
68556;HTU21D;55544;51.032;5.866;2023-05-10T10:02:53;16.34;82.05
68556;HTU21D;55544;51.032;5.866;2023-05-10T10:05:19;16.43;83.00
68556;HTU21D;55544;51.032;5.866;2023-05-10T10:07:45;16.57;82.52
68556;HTU21D;55544;51.032;5.866;2023-05-10T10:10:12;16.59;81.36
68556;HTU21D;55544;51.032;5.866;2023-05-10T10:12:40;16.50;80.28
68556;HTU21D;55544;51.032;5.866;2023-05-10T10:15:08;16.36;80.49
68556;HTU21D;55544;51.032;5.866;2023-05-10T10:17:36;16.34;81.48
68556;HTU21D;55544;51.032;5.866;2023-05-10T10:20:03;16.41;80.76
68556;HTU21D;55544;51.032;5.866;2023-05-10T10:22:29;16.39;80.45
68556;HTU21D;55544;51.032;5.866;2023-05-10T10:24:55;16.44;81.24
68556;HTU21D;55544;51.032;5.866;2023-05-10T10:27:33;16.52;81.32
68556;HTU21D;55544;51.032;5.866;2023-05-10T10:35:12;16.84;80.69
68556;HTU21D;55544;51.032;5.866;2023-05-10T10:37:46;17.00;79.17
68556;HTU21D;55544;51.032;5.866;2023-05-10T10:40:32;17.17;78.24
68556;HTU21D;55544;51.032;5.866;2023-05-10T10:43:28;17.25;78.07
68556;HTU21D;55544;51.032;5.866;2023-05-10T10:46:20;17.36;77.63
68556;HTU21D;55544;51.032;5.866;2023-05-10T10:49:10;17.32;76.63
68556;HTU21D;55544;51.032;5.866;2023-05-10T10:51:39;17.33;76.95
68556;HTU21D;55544;51.032;5.866;2023-05-10T10:54:10;17.30;76.28
68556;HTU21D;55544;51.032;5.866;2023-05-10T10:56:35;17.22;75.86
68556;HTU21D;55544;51.032;5.866;2023-05-10T10:59:01;17.19;75.18
68556;HTU21D;55544;51.032;5.866;2023-05-10T11:01:33;17.10;74.47
68556;HTU21D;55544;51.032;5.866;2023-05-10T11:06:35;17.03;75.71
68556;HTU21D;55544;51.032;5.866;2023-05-10T11:09:09;17.05;75.24
68556;HTU21D;55544;51.032;5.866;2023-05-10T11:11:36;17.00;74.47
68556;HTU21D;55544;51.032;5.866;2023-05-10T11:14:13;17.06;74.47
68556;HTU21D;55544;51.032;5.866;2023-05-10T11:16:43;16.99;73.91
68556;HTU21D;55544;51.032;5.866;2023-05-10T11:19:17;16.92;74.92
68556;HTU21D;55544;51.032;5.866;2023-05-10T11:22:11;16.94;75.52
68556;HTU21D;55544;51.032;5.866;2023-05-10T11:24:38;17.05;73.75
68556;HTU21D;55544;51.032;5.866;2023-05-10T11:27:04;17.06;74.64
68556;HTU21D;55544;51.032;5.866;2023-05-10T11:29:30;17.07;74.58
68556;HTU21D;55544;51.032;5.866;2023-05-10T11:31:58;17.24;75.29
68556;HTU21D;55544;51.032;5.866;2023-05-10T11:34:29;17.28;75.04
68556;HTU21D;55544;51.032;5.866;2023-05-10T11:37:01;17.36;74.78
68556;HTU21D;55544;51.032;5.866;2023-05-10T11:39:28;17.50;74.99
68556;HTU21D;55544;51.032;5.866;2023-05-10T11:41:54;17.54;74.64
68556;HTU21D;55544;51.032;5.866;2023-05-10T11:44:20;17.62;72.86
68556;HTU21D;55544;51.032;5.866;2023-05-10T11:46:46;17.73;72.18
68556;HTU21D;55544;51.032;5.866;2023-05-10T11:49:11;17.95;71.71
68556;HTU21D;55544;51.032;5.866;2023-05-10T11:51:38;18.19;70.74
68556;HTU21D;55544;51.032;5.866;2023-05-10T11:54:07;18.40;71.22
68556;HTU21D;55544;51.032;5.866;2023-05-10T11:56:40;18.62;68.90
68556;HTU21D;55544;51.032;5.866;2023-05-10T11:59:06;18.65;68.74
68556;HTU21D;55544;51.032;5.866;2023-05-10T12:01:34;18.88;69.29
68556;HTU21D;55544;51.032;5.866;2023-05-10T12:04:01;19.05;68.52
68556;HTU21D;55544;51.032;5.866;2023-05-10T12:06:29;18.97;67.70
68556;HTU21D;55544;51.032;5.866;2023-05-10T12:08:57;18.85;68.54
68556;HTU21D;55544;51.032;5.866;2023-05-10T12:11:27;18.79;69.31
68556;HTU21D;55544;51.032;5.866;2023-05-10T12:13:55;18.73;69.42
68556;HTU21D;55544;51.032;5.866;2023-05-10T12:16:28;18.76;70.58
68556;HTU21D;55544;51.032;5.866;2023-05-10T12:18:59;19.02;69.10
68556;HTU21D;55544;51.032;5.866;2023-05-10T12:21:28;19.29;68.74
68556;HTU21D;55544;51.032;5.866;2023-05-10T12:24:02;19.60;67.27
68556;HTU21D;55544;51.032;5.866;2023-05-10T12:26:28;19.47;65.80
68556;HTU21D;55544;51.032;5.866;2023-05-10T12:29:00;19.35;67.60
68556;HTU21D;55544;51.032;5.866;2023-05-10T12:31:52;19.58;67.66
68556;HTU21D;55544;51.032;5.866;2023-05-10T12:34:36;19.46;66.83
68556;HTU21D;55544;51.032;5.866;2023-05-10T12:37:03;19.31;66.98
68556;HTU21D;55544;51.032;5.866;2023-05-10T12:39:39;19.16;67.79
68556;HTU21D;55544;51.032;5.866;2023-05-10T12:42:06;18.99;68.01
68556;HTU21D;55544;51.032;5.866;2023-05-10T12:44:32;18.98;67.77
68556;HTU21D;55544;51.032;5.866;2023-05-10T12:46:58;18.93;67.39
68556;HTU21D;55544;51.032;5.866;2023-05-10T12:49:23;18.95;66.88
68556;HTU21D;55544;51.032;5.866;2023-05-10T12:51:49;18.80;67.30
68556;HTU21D;55544;51.032;5.866;2023-05-10T12:54:15;18.93;67.80
68556;HTU21D;55544;51.032;5.866;2023-05-10T12:56:40;19.03;66.88
68556;HTU21D;55544;51.032;5.866;2023-05-10T12:59:08;18.98;67.10
68556;HTU21D;55544;51.032;5.866;2023-05-10T13:01:33;18.98;67.94
68556;HTU21D;55544;51.032;5.866;2023-05-10T13:03:59;19.08;67.84
68556;HTU21D;55544;51.032;5.866;2023-05-10T13:06:25;19.20;68.11
68556;HTU21D;55544;51.032;5.866;2023-05-10T13:08:51;19.58;67.00
68556;HTU21D;55544;51.032;5.866;2023-05-10T13:11:17;19.57;65.52
68556;HTU21D;55544;51.032;5.866;2023-05-10T13:13:47;19.59;65.41
68556;HTU21D;55544;51.032;5.866;2023-05-10T13:16:13;19.52;64.57
68556;HTU21D;55544;51.032;5.866;2023-05-10T13:18:38;19.45;65.02
68556;HTU21D;55544;51.032;5.866;2023-05-10T13:21:04;19.58;64.50
68556;HTU21D;55544;51.032;5.866;2023-05-10T13:23:30;19.50;65.11
68556;HTU21D;55544;51.032;5.866;2023-05-10T13:25:56;19.39;65.27
68556;HTU21D;55544;51.032;5.866;2023-05-10T13:28:22;19.15;64.50
68556;HTU21D;55544;51.032;5.866;2023-05-10T13:30:47;18.99;64.54
68556;HTU21D;55544;51.032;5.866;2023-05-10T13:33:13;18.89;65.37
68556;HTU21D;55544;51.032;5.866;2023-05-10T13:35:39;18.81;64.71
68556;HTU21D;55544;51.032;5.866;2023-05-10T13:38:05;18.64;65.63
68556;HTU21D;55544;51.032;5.866;2023-05-10T13:40:33;18.57;65.96
68556;HTU21D;55544;51.032;5.866;2023-05-10T13:42:59;18.46;66.31
68556;HTU21D;55544;51.032;5.866;2023-05-10T13:45:25;18.34;65.78
68556;HTU21D;55544;51.032;5.866;2023-05-10T13:47:51;18.34;66.98
68556;HTU21D;55544;51.032;5.866;2023-05-10T13:50:17;18.26;66.19
68556;HTU21D;55544;51.032;5.866;2023-05-10T13:52:43;18.22;65.53
68556;HTU21D;55544;51.032;5.866;2023-05-10T13:55:09;18.21;66.53
68556;HTU21D;55544;51.032;5.866;2023-05-10T13:57:37;18.26;67.64
68556;HTU21D;55544;51.032;5.866;2023-05-10T14:00:03;18.33;68.40
68556;HTU21D;55544;51.032;5.866;2023-05-10T14:02:33;18.39;70.17
68556;HTU21D;55544;51.032;5.866;2023-05-10T14:04:59;18.48;68.54
68556;HTU21D;55544;51.032;5.866;2023-05-10T14:07:25;18.52;68.19
68556;HTU21D;55544;51.032;5.866;2023-05-10T14:09:51;18.43;68.21
68556;HTU21D;55544;51.032;5.866;2023-05-10T14:12:16;18.41;68.42
68556;HTU21D;55544;51.032;5.866;2023-05-10T14:14:42;18.42;68.62
68556;HTU21D;55544;51.032;5.866;2023-05-10T14:17:08;18.34;68.55
68556;HTU21D;55544;51.032;5.866;2023-05-10T14:19:33;18.34;68.87
68556;HTU21D;55544;51.032;5.866;2023-05-10T14:21:59;18.41;68.45
68556;HTU21D;55544;51.032;5.866;2023-05-10T14:24:25;18.28;69.00
68556;HTU21D;55544;51.032;5.866;2023-05-10T14:26:51;18.25;68.80
68556;HTU21D;55544;51.032;5.866;2023-05-10T14:29:20;18.23;68.56
68556;HTU21D;55544;51.032;5.866;2023-05-10T14:31:45;18.27;68.05
68556;HTU21D;55544;51.032;5.866;2023-05-10T14:34:11;18.32;67.88
68556;HTU21D;55544;51.032;5.866;2023-05-10T14:36:37;18.28;68.97
68556;HTU21D;55544;51.032;5.866;2023-05-10T14:39:02;18.39;68.30
68556;HTU21D;55544;51.032;5.866;2023-05-10T14:41:28;18.30;68.46
68556;HTU21D;55544;51.032;5.866;2023-05-10T14:43:55;18.18;68.49
68556;HTU21D;55544;51.032;5.866;2023-05-10T14:46:21;18.23;68.72
68556;HTU21D;55544;51.032;5.866;2023-05-10T14:48:47;18.26;68.53
68556;HTU21D;55544;51.032;5.866;2023-05-10T14:51:12;18.21;69.27
68556;HTU21D;55544;51.032;5.866;2023-05-10T14:53:38;18.21;69.52
68556;HTU21D;55544;51.032;5.866;2023-05-10T14:56:04;18.26;69.20
68556;HTU21D;55544;51.032;5.866;2023-05-10T14:58:30;18.30;69.29
68556;HTU21D;55544;51.032;5.866;2023-05-10T15:00:56;18.25;68.92
68556;HTU21D;55544;51.032;5.866;2023-05-10T15:03:22;18.20;69.18
68556;HTU21D;55544;51.032;5.866;2023-05-10T15:05:48;18.15;69.11
68556;HTU21D;55544;51.032;5.866;2023-05-10T15:08:13;18.19;69.03
68556;HTU21D;55544;51.032;5.866;2023-05-10T15:10:39;18.15;69.81
68556;HTU21D;55544;51.032;5.866;2023-05-10T15:13:05;18.14;70.11
68556;HTU21D;55544;51.032;5.866;2023-05-10T15:15:31;18.12;69.72
68556;HTU21D;55544;51.032;5.866;2023-05-10T15:17:57;18.08;69.01
68556;HTU21D;55544;51.032;5.866;2023-05-10T15:20:22;17.99;68.93
68556;HTU21D;55544;51.032;5.866;2023-05-10T15:22:48;18.04;69.58
68556;HTU21D;55544;51.032;5.866;2023-05-10T15:25:14;17.93;69.63
68556;HTU21D;55544;51.032;5.866;2023-05-10T15:27:41;17.90;70.35
68556;HTU21D;55544;51.032;5.866;2023-05-10T15:30:09;17.89;70.12
68556;HTU21D;55544;51.032;5.866;2023-05-10T15:32:35;17.90;71.26
68556;HTU21D;55544;51.032;5.866;2023-05-10T15:35:01;17.89;70.95
68556;HTU21D;55544;51.032;5.866;2023-05-10T15:37:27;17.92;71.90
68556;HTU21D;55544;51.032;5.866;2023-05-10T15:39:53;17.94;71.69
68556;HTU21D;55544;51.032;5.866;2023-05-10T15:42:19;17.96;71.32
68556;HTU21D;55544;51.032;5.866;2023-05-10T15:44:44;17.95;70.58
68556;HTU21D;55544;51.032;5.866;2023-05-10T15:47:15;17.89;71.44
68556;HTU21D;55544;51.032;5.866;2023-05-10T15:49:41;17.87;71.89